SMRA20 UAOL 242100
AAXX 24211
20069 42976 01305 11006 21006 30146 40164 57007=
20087 42998 01504 10003 21004 30185 40196 54000=
20107 42499 82101 10052 20036 39895 49988 57003 886// 333 91002=
20292 41396 80805 11017 21018 30186 40203 52003 72842 886//=
20471 42998 20404 10012 20008 30133 40149 57003 80001=
20476 42598 50305 10019 20005 30124 40137 57004 82531=
20667 41/91 /1501 10022 20021 30140 40147 56004 74541=
20674 41995 30403 10022 20017 30067 40125 57002 71011 80001=
20744 42598 71307 10092 20050 30094 40111 57005 82530 333 91110=
20871 42998 30607 10133 20095 30097 40103 58003 82031 333 91111=
20946 42998 21504 10004 20004 30131 40145 58006 82030=
20967 42998 23406 10055 20044 30093 40115 53003 82030=
20978 41894 20000 10140 20136 30042 40076 54000 71000 82030=
21636 41498 805// 10025 20009 30061 40092 52005 72582 889//=
21721 42598 83605 10104 20092 30045 40068 53009 885//=
21802 42399 83405 10065 20047 30100 40123 52019 886// 333 88710=
21813 42598 83504 10138 20119 30019 40051 58007 885//=
21821 41596 70106 10131 20100 30035 40055 52005 71022 82131=
21824 41498 80000 10122 20106 30048 40056 52005 70282 83631=
21908 42599 70503 10152 20121 30022 40095 52031 87500=
21921 42699 60103 10169 20137 30010 40048 53003 86200=
21937 13/// /1001 10180 20130 39928 40035 57004 60002 333 20135 3/013 555 7000/=
21978 11398 82803 10016 20008 30065 40072 58003 60002 72842 886// 333 20002 3//// 41998 91106 555 7000/=
21982 42998 23303 10092 20048 30020 40045 57004 81031 333 91107=
22003 42599 52102 10072 20047 30116 40125 52014 82540 333 91003=
22101 42/// /0000 10071 20064 30000 40123 51006=
22105 42/// /3102 10073 20049 30022 40133 52010 333 91003=
22113 42599 61802 10116 20052 30072 40133 52014 86500 333 91002=
22127 42698 71901 10097 20058 39946 40142 52013 83530 333 91001=
22165 42598 83604 10082 20051 30081 40141 52013 885//=
22217 42599 23101 10096 20082 30112 40143 52009 81501 333 91001=
22235 42/// /2501 10123 20086 39958 40146 52011 333 91001=
22249 42599 72501 10125 20069 39965 40145 52011 87500 333 91001=
22271 42598 62402 10077 20075 30134 40140 52009 83501=
22292 42998 12101 10127 20092 30139 40144 53005 81030=
22312 42/// /1801 10114 20088 30123 40144 52008 333 91001=
22324 42598 81502 10116 20081 30099 40147 52008 82831 333 91002=
22334 43/// /0202 10095 20068 30143 40150 51006 333 91002=
22349 42/// /3001 10129 20098 30138 40148 52006 333 91002=
22365 42998 62302 10140 20112 30123 40149 52002 86070=
22383 42998 40702 10146 20119 30126 40142 53003 84030=
22408 42984 33601 10081 20067 30000 40146 52003 80020=
22429 42575 70901 10149 20079 30138 40147 53008 82979=
22438 42498 70504 10126 20084 30122 40144 51001 86971=
22446 42998 70804 10150 20080 30053 40145 53003 86031=
22456 42998 80000 10135 20099 30061 40145 52003 85071=
22471 42999 73402 10150 20109 30123 40146 52004 86031=
22481 41598 72301 10174 20124 30093 40143 54000 70282 83340=
22520 42998 70703 10131 20085 30133 40142 53007 87030=
22525 42/// /0403 10135 20095 30125 40137 50006=
22546 42598 70502 10156 20102 30129 40139 57006 82589=
22550 82997 50101 10121 20101 30124 40134 57004 82032=
22551 42998 80202 10153 20105 30135 40139 58003 82085=
22559 82598 80503 10160 20108 30115 40131 58003 82901=
22563 42498 73201 10123 20094 30102 40136 50001 82509=
22573 42999 80000 10157 20134 30053 40139 53001 83031=
22583 42984 12401 10133 20099 30065 40143 5//// 80070=
22619 42580 80903 10153 20090 39963 40116 57006 8357/=
22621 42998 80101 10153 20088 39986 40119 58010 84032=
22656 42975 63502 10172 20125 30097 40117 57001 81035=
22671 42998 30701 10174 20106 30053 40127 54000 82032=
22676 42898 71301 10172 20146 30061 40134 52009 82084=
22695 42998 51201 10176 20114 30002 40146 52004 81031=
22717 42598 80902 10150 20107 39918 40102 53003 84305=
22721 41998 83001 10138 20125 30020 40116 55014 70298 8807/=
22727 42/// /1002 10143 20131 30065 40111 53011=
22749 42598 72906 10195 20157 30000 40116 53019 83970=
22762 82598 51201 10210 20156 30084 40121 50004 82973=
22798 42998 00000 10149 20120 30041 40148 52005=
22820 42/// /0703 10124 20117 39963 40093 58003 555   50142=
22829 42/// /0000 10151 20142 30041 40089 58005 333   91115=
22845 42498 83103 10208 20133 39974 40120 53023 85925 333 91111=
22854 42884 61002 10209 20173 39844 40110 52005 83031=
22867 42597 50000 10196 20157 30013 40118 52008 82201=
22869 42597 40701 10223 20170 39990 40127 52007 82431=
22876 42997 60000 10173 20161 30069 40137 54001 86030=
22887 41956 60000 10177 20174 30072 40138 53005 71122 80001=
22889 42/// /0000 10156 20152 30070 40152 52008=
22891 41599 71601 10128 20125 39998 40082 52011 70265 85531=
22892 41598 70602 10141 20127 30062 40077 57008 72582 879//=
22897 42/// /1002 10137 20135 30061 40074 53006=
22917 42999 11602 10140 20128 30087 40098 51029 80001 333   91110=
22939 41597 61501 10160 20144 39966 40120 52011 70292 84335=
22951 42998 60901 10159 20148 39851 40117 52005 80001=
22954 42499 52203 10206 20138 39884 40116 52011 82901=
22996 82998 30000 10190 20160 39975 40149 52007 80001=
23022 42997 61501 10076 20006 30082 40147 58005 82031=
23032 41596 23304 10028 20024 30106 40138 54000 71011 81531=
23078 42599 61002 10158 20158 30018 40094 52006 85530=
23112 41498 60401 10026 20026 30137 40145 57002 70242 83502=
23114 42597 73601 10082 20074 30135 40143 56002 85530=
23205 82998 71001 10170 20108 30117 40130 54000 87030=
23226 42960 60302 10069 21027 39932 40142 58002 80009=
23256 41396 32803 10121 20119 30059 40093 52009 71000 83600=
23274 42998 20000 10122 20116 30068 40102 52008 80001=
23324 42981 20701 10118 20092 30068 40142 52008 81071=
23330 82598 43201 10097 20050 30113 40132 52007 82430=
23339 42499 83601 10102 20068 30078 40122 54000 887//=
23345 42497 70106 10115 20093 30101 40110 52007 87500 333 91110=
23358 41996 80303 10132 20128 30014 40088 53012 71022 85031=
23376 43/// /0501 10092 20083 39984 40106 52007=
23405 42967 69901 10157 20118 30046 40140 53004 86030=
23412 42699 50403 10178 20116 30039 40130 52005 82530=
23418 42965 60000 10166 20147 30058 40127 52004 86030=
23426 42987 20401 10127 20085 30110 40133 51011 80009=
23431 42999 20501 10061 20051 30112 40132 52004 80001=
23443 82499 80202 10114 20112 30028 40090 52009 8698/=
23445 41396 83303 10106 20106 30068 40084 52005 78082 889//=
23453 42/// /0202 10149 20149 30056 40084 52011=
23465 42998 50601 10162 20114 30053 40082 52007 83031=
23471 42998 51602 10139 20126 39980 40045 52003 83031=
23472 42699 70402 10157 20148 30042 40091 52002 86501=
23503 42998 61301 10116 20108 30086 40134 53004 86030=
23527 42599 83601 10140 20103 30095 40130 52013 83941=
23552 42697 13001 10148 20131 30037 40068 52003 81100=
23578 41497 81201 10178 20163 30043 40078 52005 78082 87907=
23589 42599 20000 10131 20124 39969 40096 52007 81101=
23606 42962 30000 10160 20151 39975 40137 53005 82031=
23625 42598 13601 10140 20077 30088 40120 52010 81400=
23631 42998 10303 10143 20067 30077 40116 52009 80001=
23635 42597 83402 10104 20078 39990 40094 52001 885//=
23656 42498 20000 10140 20131 39981 40061 52002 82500=
23662 42999 50000 10122 20115 30029 40071 51005 85030=
23678 41598 81201 10168 20158 30034 40087 52014 71798 889//=
23708 42984 52201 10163 20125 30005 40147 52005 80001=
23711 42998 12802 10162 20133 39977 40141 58007 80001=
23724 82999 52901 10162 20094 30057 40117 53006 83041=
23734 82997 80201 10129 20067 30016 40103 52006 82031=
23741 81497 83303 10118 20101 39962 40064 58001 78082 889//=
23748 42482 70402 10145 20141 39955 40035 57001 84530 333 84619=
23758 82597 70000 10141 20131 39961 40043 54000 86931 333 84920=
23774 43/// /1501 10162 20151 30012 40083 51010=
23776 42599 50502 10182 20151 30029 40086 52008 85900=
23788 42598 60901 10132 20125 30004 40078 52010 82402=
23803 42999 30101 10176 20130 39978 40147 52004 80001=
23804 82997 20000 10158 20148 30009 40147 52004 80001=
23812 42997 22201 10144 20124 39982 40137 52001 82030=
23823 82998 13002 10116 20073 39974 40107 57001 80002=
23847 42597 82902 10127 20105 30025 40064 57002 86502=
23862 41497 60000 10143 20134 39968 40058 54001 70282 86900=
23867 42999 41401 10143 20099 39993 40060 52002 84030=
23884 42970 60000 10191 20143 30014 40081 52010 80001=
23891 42999 00000 10140 20135 39822 40114 52010=
23909 82598 22601 10175 20148 39914 40143 54001 81501=
23914 82999 32302 10205 20065 39900 40140 54000 80001=
23921 82699 53301 10174 20097 30009 40120 54001 82501=
23929 42976 22001 10115 20092 30043 40107 50001 80001=
23933 41997 60000 10118 20110 30025 40078 57003 71222 80081=
23939 82998 12801 10106 20104 30040 40079 57004 81030=
23946 42697 82702 10141 20121 39990 40050 54000 885//=
23947 42597 82901 10115 20100 30005 40071 54001 85502=
23955 42598 61802 10156 20123 39997 40055 52005 86500 333 86630=
23966 41596 20000 10154 20145 39951 40068 54000 71011 82502=
23973 46/// /3001 10178 20141 30028 40085 51013=
23975 41599 61001 10162 20157 39977 40077 58005 72998 86901=
23982 428// 30000 10129 20118 39954 40099 52013 81031=
23986 42999 00701 10173 20090 39513 40097 53004=
23987 42597 40301 10185 20156 30012 40079 53015 82401=
23992 42999 00000 10110 20096 39898 40111 52011=
24076 12998 20000 10161 20050 39725 40056 57010 60002 80001 333 20119 30007 555 7000/=
24125 83/// /3501 10191 20132 39834 40088 52006=
24136 42599 60000 10139 20124 39987 40078 53001 83905=
24214 78016 42564 12112 10278 20226 30230 40234 57004 81100 48698 21459 73302 10267 20245 30084 40103 78082 85938 333 69907 82812 81918 83276=
24219 42999 20000 10139 20117 39831 40109 51004 82030=
24263 12999 80000 10185 20122 39792 40039 58003 60002 80001 333 20129 30011 555 7000/=
24266 12999 62302 10175 20102 39884 40044 57005 60002 80004 333 20124 30011 555 7000/=
24322 42799 32902 10174 20113 39525 40097 52002 82401=
24329 42699 20000 10110 20098 39818 40099 52004 81501=
24338 42999 33502 10164 20116 39725 40077 53006 83030=
24343 42999 62302 10183 20163 39959 40066 54000 82032=
24361 12999 12101 10150 20096 39812 40046 58001 60002 80001 333 20076 30008 555 7000/=
24371 12999 11101 10126 20084 39726 40048 58007 60002 80001 333 20060 31007 555 7000/=
24382 12999 00000 10162 20064 39829 40059 58008 60002 333 20108 30007 555 7000/=
24449 42599 82101 10153 20137 39991 40078 52002 887//=
24462 42999 02701 10144 20110 39202 40084 52004=
24477 12999 00000 10139 20121 39285 40052 58002 60002 333 20082 31009 55172 555 7000/=
24507 42698 30000 10136 20121 39897 40123 52015 82101=
24525 42599 20000 10101 20074 39799 40099 52021 82200=
24538 42999 63001 10143 20132 39914 40079 58002 86030=
24557 42599 70000 10152 20152 39974 40074 58009 87300=
24606 42999 22601 10123 20112 39864 40114 52009 80001=
24639 42999 20000 10133 20120 39943 40085 52001 80001=
24641 42599 60000 10171 20114 39952 40082 52002 82301=
24643 42999 80000 10142 20133 39985 40076 57002 86075=
24644 42999 10102 10150 20132 39940 40076 58008 80001=
24652 41599 50000 10171 20161 39963 40075 57003 70282 73330=
24656 42999 80401 10128 20119 39985 40080 57001 8807/=
24661 42699 80000 10131 20125 39827 40073 57004 889//=
24668 42599 30000 10151 20148 39964 40071 58008 81530=
24684 12999 01901 10101 20076 39198 40090 53011 60002 333 20068 30007 555 7000/=
24724 42999 23301 10194 20107 39602 40082 54000 82030=
24725 42999 00000 10151 20139 39788 40092 52004=
24726 42999 20000 10173 20120 39675 40086 52002 80001=
24737 42998 30000 10122 20114 39922 40088 52002 80001=
24738 42999 20000 10141 20132 39919 40082 52001 80001=
24753 42999 80000 10159 20136 39963 40069 57003 8805/=
24758 42899 70000 10158 20120 39799 40070 57004 87030=
24768 42598 70000 10164 20136 39851 40056 58003 87500=
24817 42999 00000 10138 20099 39763 40093 52005=
24826 42999 00201 10141 20125 39681 40093 53006=
24843 42999 50000 10139 20117 39833 40058 57005 85030=
24856 42699 80000 10152 20121 39928 40071 57004 885//=
24898 11993 62401 10116 20101 39413 40078 58004 69942 74242 80001 333 20058 31007 555 53003 7995/=
24908 42698 80000 10111 20104 39798 40107 52003 80001=
24918 42999 00000 10114 20106 39749 40097 52007=
24923 42999 10000 10133 20112 39800 40084 53007 80001=
24928 42999 00000 10078 20072 39745 40103 52008=
24933 41995 20000 10073 20073 39790 40092 54000 71000 80001=
24944 42999 82401 10133 20116 39794 40064 52004 82031=
24951 42699 70000 10132 20111 39917 40072 58001 82530=
24959 42699 80000 10167 20139 39951 40069 57003 82531=
24962 42599 70000 10143 20121 39901 40074 53001 86330=
24966 12699 30000 10148 20130 39866 40064 58003 69902 82201 333 20093 30009 555=
24967 42599 72302 10115 20101 39877 40082 57009 85930=
25042 11/93 92802 11010 21010 30056 40073 58002 60002 74544 333 21015 31001 91003 91103 555 7000/=
25121 12998 00303 10064 20033 30078 40090 58002 60002 80001 333 10032 33/// 555 7000/=
25123 12998 73303 10063 20040 30037 40068 54000 60002 87500 333 20046 31007 87607 555 7000/=
25138 12699 53203 10137 20088 39938 40051 54000 69952 83531 333 20105 30010 91106 555 10020 7003/=
25151 11395 83402 10022 20019 30069 40075 58006 60002 71022 886// 333 20011 30002 88708 91106 555 7000/=
25282 42998 11808 10044 20002 30100 40106 58008 81040 333 91112=
25399 42498 72006 10058 20042 30160 40169 53001 86601 333 91108=
25469 42499 81103 10088 20042 30088 40111 54000 889// 333 91106=
25551 41597 80202 10096 20071 30050 40079 52002 78082 8595/ 333 91104=
25563 41465 81406 10075 20053 30031 40105 53003 78082 889// 333 91108=
25627 11499 80000 10089 20082 39245 40064 54000 60022 72582 889// 333 20047 32006 555 53003 7004/=
25648 11598 80103 10104 20092 30006 40059 52010 60012 78082 889// 333 20104 31008 555 53008 7001/=
25705 11699 81901 10115 20095 39756 40066 57004 60002 70422 80331 333 20065 30007 555 53002 7000/=
25715 11699 60000 10128 20084 39478 40056 55003 69912 70282 84930 333 20085 31010 555 53005 7991/=
26038 21228 80103 10123 20114 30033 40073 57007 78082 889//  333  10169 20123 60037 88905  555  1/012 20123 3/012 50118 52012=
26045 27264 80707 10133 20129 30054 40057 57007 70000 88/// 333 10141 20118 69927 88/04 91009 91116 555 20118 50124=
26058 27470 61304 10132 20120 30029 40062 53005 70000 86/// 333 10150 20128 60007 86/17 555 20128 50133=
26059 42597 31202 10122 20121 30044 40068 53008 82530=
26060 42598 20901 10148 20130 30070 40076 52011 81501=
26063 42997 21401 10149 20112 30079 40086 53017 80001=
26069 42599 31302 10117 20104 39977 40084 52013 82530=
26072 42997 11501 10115 20115 30072 40091 51020 80001=
26078 42/// /1502 10125 20098 30048 40095 51017=
26080 42984 21803 10134 20091 30069 40101 51017 80001=
26094 42998 22101 10136 20089 30035 40110 51024 82030=
26099 42/// /2502 10167 20112 39902 40108 53020=
26115 27658 83402 10117 20106 30092 40100 57005 78186 88/// 333 10165 20117 69957 88/44 555 20117 50119=
26135 27235 83402 10120 20117 39983 40056 55007 76188 88/// 333 10171 20115 69997 88/04 555 20115 50122 52011=
26157 42598 71204 10122 20106 30010 40058 53010 87500=
26179 42597 61905 10135 20089 30072 40103 52018 81941 333   91112=
26214 27669 83504 10119 20100 30098 40105 58002 76288 88///  333  10160 20118 60017 88/49 91111  555  1/011 20118 3/011 50131=
26227 27764 82803 10113 20103 30090 40092 58006 76166 88///  333  10153 20110 60027 88/56  555  1/100 20110 3/133 50126=
26242 21270 80701 10131 20131 39960 40044 53007 70262 886// 333 10131 20107 69997 88706 555 1/013 20107 3/012 50117 52011=
26247 27/24 /2504 10108 20105 39977 40054 52012 76286 333 10133 20108 60037 555 20108 50118=
26258 41598 81902 10113 20100 30016 40069 52027 70262 886//=
26268 42/// /1803 10123 20087 30016 40093 52021 333   91110=
26275 42998 11703 10117 20088 30081 40110 52020 81030=
26285 42/// /1401 10116 20085 30044 40120 52021=
26291 42998 22101 10127 20092 30015 40121 53035 81041=
26298 82997 22401 10103 20078 39902 40126 51017 80001=
26313 43/// /3203 10110 20097 40103 57005=
26346 41497 82203 10096 20091 40070 52033 78088 889//=
26359 42598 72003 10104 20084 39983 40105 51028 87900 333   91110=
26378 42598 21502 10110 20086 30033 40119 52018 82930=
26381 42/// /1601 10102 20079 30049 40123 52018=
26389 81596 21901 10095 20081 39872 40130 52014 71011 82500=
26393 82597 31701 10115 20088 39927 40130 51019 82901=
26406 41496 63402 10122 20090 40128 52002 78082 85930 333 85914=
26416 43/// /2902 10102 20095 39983 40119 52002 333 91004=
26422 43/// /2403 10114 20102 40102 52005=
26424 43/// /2803 10110 20097 40112 52003=
26477 42997 00000 10095 20088 39997 40125 52016=
26479 82598 20000 10098 20079 39904 40129 52014 82500=
26499 82997 21801 10093 20078 39916 40140 53012 80001=
26518 41970 83102 10102 20092 40131 52006 76186 8802/ 333 91004 91106=
26524 41697 83202 10114 20088 39990 40120 51003 78088 889// 333 91003 91103=
26531 41570 62502 10107 20095 40114 52008 70282 85570 333 85628 91004 91106=
26544 43/// /2001 10097 20091 30001 40120 51011 333 91002=
26578 82962 00000 10083 20079 39932 40132 51010=
26585 82997 02102 10104 20083 39873 40140 52007=
26629 41762 80000 10118 20112 30033 40126 52007 76162 8802/ 333 88550 91002 91104=
26633 42770 70000 10110 20103 39994 40122 52007 85552 333 85650 91002 91103=
26643 /2563 81901 10112 20094 39968 40125 52013 8257/=
26645 /2665 70000 10100 20088 39873 40127 52007 87500 333 87639=
26653 /2660 40000 10092 20084 39970 40130 52013 82533=
26666 /2981 02201 10116 20089 39920 40130 52010=
26695 81996 02302 10074 20069 39850 40149 52007 71000=
26730 42964 30000 10102 20088 39942 40131 52008 83030 333 91000 91102=
26763 /2960 01903 10113 20093 39913 40134 52009=
26774 /2968 01603 10096 20087 39900 40143 52007=
26781 82997 01201 10084 20077 39859 40148 52007=
26784 82998 61501 10093 20083 39908 40153 52008 80001=
26795 82997 32101 10089 20080 39868 40155 52008 80002=
26825 /2660 72201 10116 20088 39950 40129 52014 875// 333 87633=
26832 /2560 72101 10121 20099 39943 40130 52010 875// 333 87621=
26850 /1477 80000 10128 20101 39867 40136 52010 70262 885// 333 88715 555 69907=
26853 /2960 10000 10107 20099 39954 40139 52010 81060=
26855 /2563 51901 10117 20091 39930 40141 52010 82550=
26863 /2960 51902 10115 20078 39905 40135 51006 85030=
26864 /1596 20000 10098 20087 39956 40143 52010 71000 82500=
26878 /2570 21702 10116 20090 39943 40146 52006 82500=
26882 82984 62002 10107 20091 39885 40154 53006 80004=
26887 /2981 21901 10108 20095 39951 40152 52007 80002=
26894 41956 31501 10090 20080 39943 40157 52017 71000 80001=
26898 42997 32501 10123 20082 39903 40161 52007 80001=
26941 /1660 71902 10114 20087 39905 40136 52011 70282 87500 555 69917=
26951 /2570 42202 10114 20088 39948 40143 52010 83560=
26961 /2960 02401 10100 20089 39955 40143 52009=
26966 /2962 323// 10119 20102 39979 40149 52006 82041=
26976 41996 31401 10098 20086 39979 40158 52008 71022 83030=
26997 41957 22101 10101 20087 39953 40168 52009 71000 80001=
27020 86/// /1201 10172 20158 39966 40106 52022=
27037 41598 31301 10208 20143 39954 40105 52001 70191 83900=
27051 42697 71001 10201 20166 39966 40122 52006 83531=
27066 42998 50000 10191 20167 39976 40142 52006 82032=
27108 42/// /2602 10150 20108 39943 40116 51022=
27164 82997 21001 10192 20172 39961 40137 52006 80001=
27176 82999 00000 10182 20172 39962 40148 52006=
27208 81597 72001 10146 20112 39957 40126 52017 72582 87400=
27215 81598 72801 10151 20136 39923 40120 52016 71792 86902=
27223 41599 43102 10186 20143 39970 40110 52014 79600 84300=
27225 81496 82802 10190 20160 39991 40114 52021 78098 883//=
27242 82998 01001 10211 20157 39992 40111 52002=
27252 82998 01502 10223 20159 39954 40126 52004=
27271 82997 21501 10188 20163 39994 40141 52004 80001=
27316 82999 72702 10156 20122 39961 40126 51020 87030=
27321 81974 62802 10180 20151 39971 40114 51011 70298 86070=
27329 82584 83302 10185 20166 39991 40109 51018 889//=
27333 82584 31604 10232 20151 39956 40101 54001 81201=
27347 82997 01102 10224 20140 39957 40102 54001=
27355 82997 01402 10226 20166 39970 40122 52002=
27402 82697 52601 10137 20097 39962 40135 53015 83530=
27507 81958 00000 10089 20080 39910 40143 52008 71100=
27511 81597 82701 10137 20119 39945 40134 53010 70282 883//=
27532 82597 71801 10226 20131 39897 40094 52002 85530=
27539 82498 52502 10229 20116 39941 40097 53004 83905=
27593 82998 20901 10220 20169 39982 40159 52004 80001=
27595 82997 71201 10228 20163 30026 40163 52004 80004=
27606 429// 60000 10149 20138 39905 40137 52010 86030=
27612 825// 83201 10158 20105 39953 40140 51023 885//=
27627 81597 83003 10134 20121 39871 40130 50011 72582 885//=
27648 82597 81601 10224 20101 39948 40104 53003 82531=
27697 82998 30801 10229 20149 39979 40160 52003 83030=
27707 81956 00000 10089 20084 39869 40156 52008 71000=
27719 82597 82601 10135 20123 39897 40140 51009 883//=
27730 81597 83502 10170 20165 39928 40112 58003 76186 8802/=
27756 42997 01402 10228 20119 39907 40123 52002 333 91004 91104=
27776 82970 62601 10181 20144 30031 40149 52004 80001=
27785 82997 00000 10192 20145 30006 40157 52002=
27799 82997 23401 10195 20174 30077 40162 52006 80005=
27817 42997 22402 10108 20090 39914 40155 52013 80001=
27821 81597 62802 10135 20119 39871 40143 51007 70282 83930=
27823 81599 80601 10145 20135 39881 40128 53012 70298 82301=
27835 81596 82301 10177 20169 39975 40123 53013 71098 8657/=
27848 42997 62001 10208 20169 39952 40116 52015 86050=
27857 82997 31603 10194 20116 39972 40125 52017 83030=
27858 82997 11902 10203 20096 39826 40127 52010 80009=
27872 82980 61201 10175 20128 39945 40150 52003 80004=
27906 42997 02801 10115 20092 39929 40164 52007=
27921 82997 42603 10137 20122 39896 40151 52015 84030=
27928 41596 72602 10144 20124 39947 40146 52018 71022 87530=
27930 42560 72905 10141 20133 39936 40147 52023 86550 333 86621=
27935 41596 82502 10169 20151 39948 40133 52023 78082 889//=
27947 42460 82102 10199 20168 39971 40126 52017 885// 333 88614=
27955 82978 31901 10202 20117 39893 40131 51014 80009=
27957 42997 52202 10212 20153 39921 40116 52014 85030=
27962 42997 51403 10225 20146 39933 40131 54000 85070=
27972 42974 31202 10224 20136 39854 40144 54000 80001=
27981 82997 80000 10193 20130 30038 40154 52003 80007=
27983 82971 10101 10174 20133 30033 40155 52002 80001=
27995 82973 20901 10175 20151 30102 40159 52004 80001=
28009 42998 00000 10191 20171 39958 40155 52005 333 91000 91101=
28044 82597 33003 10176 20093 39974 40120 54000 83100=
28049 82998 52302 10190 20047 39964 40117 58001 85030=
28064 42998 02702 10149 20071 30014 40097 57005=
28076 41697 50000 10100 20100 30012 40081 57004 71122 82531=
28097 41997 00000 10103 20101 39994 40067 52002 71200=
28116 82999 11701 10161 20139 39935 40154 52003 80001=
28138 42/// /3501 10135 20092 39610 40151 54001=
28144 82598 22702 10120 20104 39977 40127 52001 81502=
28165 82984 60000 10099 20095 30006 40104 54000 85031=
28216 82998 12002 10208 20104 39878 40155 52004 80001=
28224 82998 21401 10142 20119 39953 40156 52003 80001=
28240 82998 01201 10109 20100 39831 40141 52002=
28275 82997 70000 10117 20105 30032 40091 50001 86052 333 20117=
28319 82899 20801 10134 20121 30010 40167 52007 82050=
28321 82999 22202 10160 20122 39966 40159 52005 80001=
28334 81997 20000 10123 20104 39863 40158 52004 71200 80004=
28366 42997 73001 10128 20119 30040 40100 52002 80008=
28367 82984 60000 10127 20115 39990 40111 54001 80001=
28382 81998 83102 10121 20121 30010 40077 52003 71111 82041=
28383 81996 33201 10130 20130 39991 40069 52004 71011 80002=
28418 42997 00000 10187 20134 30000 40156 52003 333 91000 91101=
28428 42/// /3202 10127 20108 39992 40170 52008=
28434 82998 02101 10128 20115 39914 40160 52004=
28440 42997 02301 10162 20098 39810 40138 54001=
28451 82996 62801 10134 20092 39975 40126 52002 86030=
28465 42998 53102 10133 20110 30035 40108 52005 83032=
28481 81596 63403 10141 20123 39984 40076 52005 71022 82501=
28491 41597 70000 10146 20142 39964 40067 52005 71222 87500=
28493 42497 63402 10148 20132 39971 40058 52004 82940=
28502 42998 00000 10180 20165 30064 40163 52003 333 91000 91103=
28506 82997 23001 10194 20166 30057 40162 52006 80001=
28517 82997 00000 10197 20161 30031 40161 52006=
28522 429// 00000 10136 20116 39922 40167 52008=
28541 42999 00000 10105 20088 39685 40158 52003=
28552 82597 32501 10133 20097 30017 40123 52004 82502=
28573 82997 13303 10145 20122 39982 40079 52005 80001=
28586 82997 73101 10150 20136 39919 40056 54000 85031=
28588 82998 20103 10151 20125 39912 40059 52003 82060=
28593 81997 30201 10123 20115 39962 40052 52004 71111 82031=
28612 82998 50000 10180 20153 30070 40163 52008 80004=
28621 42997 11001 10171 20104 39946 40165 52007 80001=
28645 82997 00000 10131 20103 39868 40149 52004=
28655 82998 03201 10150 20091 39915 40125 54000=
28661 81997 20000 10124 20112 30026 40115 55001 71100 80001=
28666 82999 03203 10133 20110 39928 40094 52005=
28676 426// 63103 10156 20133 39955 40074 52001 82539=
28688 82597 63402 10150 20135 39909 40056 54001 82331=
28696 81997 30000 10128 20128 39915 40046 54001 71200 82031=
28698 82997 70000 10129 20120 39905 40050 54000 82031=
28704 82998 43201 10185 20169 30071 40162 52004 80001=
28711 82997 61501 10173 20144 39816 40170 52005 82031=
28719 42997 20000 10153 20119 39766 40172 52007 80001=
28722 42997 02401 10125 20103 30040 40165 52009=
28748 82597 12802 10152 20097 39912 40138 52004 81500=
28756 82997 20000 10117 20106 39977 40117 52005 82030=
28764 415// 53104 10157 20124 39914 40103 52002 78081 85900=
28766 415// 33202 10153 20130 39923 40101 52005 71011 83500=
28786 42597 20000 10136 20122 39906 40053 57001 82302=
28791 82998 53302 10141 20116 39915 40049 54000 83041=
28797 81997 23201 10133 20120 39901 40049 50000 70291 81031=
28799 82597 83201 10158 20145 39908 40043 52002 83931=
28825 42997 02101 10149 20114 39999 40162 52009=
28838 42597 23102 10136 20084 39710 40161 52007 82500=
28867 425// 63104 10139 20090 39866 40121 52004 86500=
28879 415// 82904 10146 20135 39805 40074 54000 78082 889//=
28909 42997 00000 10187 20149 30064 40158 52009=
28952 429// 00000 10129 20076 39945 40126 52003=
28966 425// 62801 10136 20132 39832 40099 52002 82350=
28978 425// 73503 10128 20123 39617 40080 54000 86902=
28984 425// 83202 10127 20116 39613 40072 54000 885//=
29023 41996 20000 10148 20143 39976 40067 52006 71000 81082=
29059 41598 70000 10191 20137 39955 40074 58015 71722 86901=
29068 42598 30000 10163 20147 30001 40079 52007 81901=
29111 42999 71301 10150 20127 39977 40059 52005 87070=
29122 42999 50000 10119 20108 39997 40064 51003 85030=
29149 41594 20000 10133 20126 39966 40089 53004 71011 82900=
29154 41597 70000 10148 20144 39947 40081 53002 70292 87900=
29203 41994 30000 10123 20112 39962 40058 51001 71011 82081=
29209 42598 60000 10111 20106 39942 40061 52004 86500=
29231 42998 10000 10121 20113 39978 40069 54000 80002=
29253 41597 63401 10176 20149 39914 40072 58003 71798 86900=
29263 42999 31401 10151 20133 39978 40076 52002 82031=
29274 42983 01701 10146 20136 39978 40084 52003=
29276 46/// /1401 10125 20117 39895 40100 52008=
29282 42998 80000 10135 20123 39940 40098 52008 80001=
29313 42598 80000 10133 20120 39947 40063 52003 8355/=
29328 41596 30000 10120 20112 39938 40069 52003 71000 82501=
29332 42998 51601 10152 20132 39940 40073 52004 82031=
29348 41996 00000 10125 20117 39944 40082 51001 72840=
29363 46/// /0000 10143 20122 39861 40073 52002=
29367 46/// /0000 10132 20126 39853 40066 52004=
29374 41998 00000 10111 20109 39971 40083 52005 71100=
29379 42998 00000 10114 20108 39892 40092 52007=
29393 41993 60000 10104 20098 39838 40101 52006 74242 82075=
29405 41996 20901 10091 20081 39924 40064 52002 71011 82030=
29418 41696 30000 10105 20098 39912 40062 53003 71011 83400=
29430 42998 20501 10129 20122 39909 40074 54000 80001=
29456 42999 62701 10159 20154 39827 40066 55001 83039=
29464 42999 21502 10180 20127 39794 40061 52002 80001=
29467 41997 60301 10188 20163 39763 40058 52003 70421 80002=
29471 42998 20000 10145 20122 39865 40077 52004 80001=
29477 42998 20000 10136 20116 39883 40077 52004 80001=
29481 42999 20000 10116 20115 39862 40085 52004 80001=
29485 429// 30000 10124 20102 39806 40095 52005 80001=
29524 41498 71401 10141 20130 39905 40057 58011 70298 87900=
29551 42598 52801 10150 20143 39905 40074 54000 82301=
29553 41997 22301 10153 20149 39731 40070 52004 71000 80001=
29557 42998 81702 10152 20142 39826 40073 57004 81037=
29558 42598 60000 10145 20134 39705 40076 53006 82942=
29561 42997 60000 10163 20153 39762 40059 52004 80005=
29562 42998 40602 10164 20115 39684 40068 52002 80001=
29563 42999 21101 10102 20091 39526 40087 54001 80002=
29566 42998 62901 10148 20112 39754 40075 54000 80001=
29571 42998 61901 10147 20121 39797 40072 52003 80001=
29576 42898 62401 10126 20111 39646 40084 53005 82031=
29578 42999 32302 10120 20112 39916 40085 52004 80001=
29580 42998 10502 10174 20105 39658 40072 52002 80001=
29581 41998 20000 10122 20113 39845 40085 52005 71100 80001=
29587 42998 20000 10097 20094 39782 40083 52003 80002=
29594 42699 32601 10124 20122 39731 40092 52005 82541=
29602 42999 00802 10134 20126 39921 40053 52001=
29605 42998 20601 10130 20122 39916 40050 58001 80001=
29612 42598 70501 10134 20117 39914 40056 57003 82304=
29625 42598 60302 10164 20133 39893 40056 54000 86500=
29631 42998 20702 10174 20147 39890 40062 58003 80001=
29636 41996 00000 10133 20130 39865 40069 58003 71000=
29638 41697 80601 10156 20141 39909 40064 58004 71222 86501=
29645 42998 62801 10140 20132 39895 40070 57001 80001=
29653 42997 30000 10130 20124 39624 40075 53007 80001=
29654 42699 60000 10143 20131 39502 40075 52002 82531=
29662 42999 50000 10140 20123 39692 40067 52003 80002=
29664 42998 22202 10139 20136 39691 40069 52005 80001=
29674 46/// /0000 10082 20078 3//// 4//// 5////=
29676 42999 20301 10102 20096 39677 40075 52004 80001=
29698 429// 00000 10095 20093 39614 40100 52003=
29706 42598 80901 10153 20141 39909 40044 56003 87501=
29712 41996 50901 10140 20128 39919 40052 53001 71011 82071=
29724 42699 80902 10167 20139 39865 40053 53001 82571=
29726 42598 80401 10175 20151 39899 40053 57002 87301=
29736 41993 00000 10130 20130 39828 40063 57006 74440=
29752 42498 72001 10163 20079 38764 48442 53003 85949=
29759 42999 10000 10112 20106 39132 40095 53003 80001=
29766 42999 01301 10138 20132 39736 40067 52003=
29768 46/// /1102 10170 20146 39768 40062 52005=
29771 42999 03303 10099 20074 39172 40094 52004=
29772 43/// /0000 10122 20102 39519 40075 52006=
29789 42999 00000 10065 20061 39001 40133 52007=
29802 424// 81101 10164 20129 39907 40041 58001 82331=
29807 429// 60000 10166 20125 39925 40035 54000 86030=
29813 41599 80901 10182 20127 39866 40044 55003 71311 83932=
29814 42499 80701 10168 20147 39913 40048 58003 8592/ 333 84916=
29822 42598 63301 10169 20154 39899 40050 54000 82430=
29827 41597 80602 10193 20158 39901 40042 53001 78082 889//=
29838 42597 50000 10181 20166 39827 40040 58009 85500=
29864 46/// /3204 10152 20110 39471 40073 52007=
29866 42999 50000 10134 20115 39765 40064 52006 80001=
29869 42997 30000 10136 20125 39718 40066 52004 80001=
29874 43/// /0000 10126 20122 39696 40070 52006=
29876 42999 01601 10118 20110 39554 40074 52010=
29923 43/// /0000 10181 20166 39785 40037 57009=
29937 42599 60202 10181 20159 39830 40032 57008 83501=
29939 42598 60602 10185 20150 39776 40035 57009 83530=
29956 42699 62301 10124 20118 39547 40069 57008 81501=
29974 42997 00000 10127 20062 38567 48462 52001=
29998 82999 20000 10057 20049 38597 48466 52005 82030=



SMUS20 KWBC 242100
AAXX 24214